createdAt,value
2019-04-29T00:00:58.955Z,5.227966
2019-04-29T00:01:59.056Z,5.227966
2019-04-29T00:02:59.160Z,5.227966
2019-04-29T00:03:59.232Z,5.217896
2019-04-29T00:04:59.292Z,5.197754
2019-04-29T00:05:59.353Z,5.217896
2019-04-29T00:06:59.428Z,5.197754
2019-04-29T00:07:59.527Z,5.187683
2019-04-29T00:08:59.634Z,5.187683
2019-04-29T00:09:59.678Z,5.177612
2019-04-29T00:10:59.738Z,5.177612
2019-04-29T00:11:59.879Z,5.1474
2019-04-29T00:12:59.967Z,5.1474
2019-04-29T00:14:00.031Z,5.127258
2019-04-29T00:15:00.158Z,5.1474
2019-04-29T00:16:00.224Z,5.1474
2019-04-29T00:17:00.341Z,5.127258
2019-04-29T00:18:00.417Z,5.127258
2019-04-29T00:19:00.487Z,5.097046
2019-04-29T00:20:00.551Z,5.097046
2019-04-29T00:21:00.631Z,5.076904
2019-04-29T00:22:00.770Z,5.066833
2019-04-29T00:23:01.004Z,5.036621
2019-04-29T00:24:03.750Z,5.016479
2019-04-29T00:25:00.955Z,5.036621
2019-04-29T00:26:01.007Z,5.016479
2019-04-29T00:27:01.085Z,5.036621
2019-04-29T00:28:01.215Z,5.016479
2019-04-29T00:29:01.296Z,5.036621
2019-04-29T00:30:01.370Z,5.016479
2019-04-29T00:31:01.438Z,5.016479
2019-04-29T00:32:01.506Z,5.006409
2019-04-29T00:33:01.630Z,5.016479
2019-04-29T00:34:01.687Z,5.006409
2019-04-29T00:35:01.746Z,5.006409
2019-04-29T00:36:01.885Z,4.996338
2019-04-29T00:37:01.917Z,4.976196
2019-04-29T00:38:02.044Z,4.966125
2019-04-29T00:39:02.135Z,4.935913
2019-04-29T00:40:02.193Z,4.89563
2019-04-29T00:41:02.271Z,4.885559
2019-04-29T00:42:02.339Z,4.865417
2019-04-29T00:43:02.414Z,4.865417
2019-04-29T00:44:02.516Z,4.855347
2019-04-29T00:45:02.575Z,4.835205
2019-04-29T00:46:02.649Z,4.835205
2019-04-29T00:47:02.710Z,4.825134
2019-04-29T00:48:02.797Z,4.815063
2019-04-29T00:49:02.884Z,4.815063
2019-04-29T00:50:02.939Z,4.794922
2019-04-29T00:51:03.013Z,4.794922
2019-04-29T00:52:03.071Z,4.784851
2019-04-29T00:53:04.133Z,4.764709
2019-04-29T00:54:03.257Z,4.744568
2019-04-29T00:55:03.306Z,4.744568
2019-04-29T00:56:03.373Z,4.744568
2019-04-29T00:57:03.434Z,4.714355
2019-04-29T00:58:03.507Z,4.684143
2019-04-29T00:59:03.547Z,4.684143
2019-04-29T01:00:03.529Z,4.684143
2019-04-29T01:01:03.675Z,4.674072
2019-04-29T01:02:03.732Z,4.664001
2019-04-29T01:03:03.746Z,4.664001
2019-04-29T01:04:03.858Z,4.64386
2019-04-29T01:05:04.152Z,4.64386
2019-04-29T01:06:04.070Z,4.664001
2019-04-29T01:07:04.167Z,4.64386
2019-04-29T01:08:04.224Z,4.633789
2019-04-29T01:09:04.331Z,4.613647
2019-04-29T01:10:04.409Z,4.613647
2019-04-29T01:11:04.558Z,4.573364
2019-04-29T01:12:04.643Z,4.573364
2019-04-29T01:13:04.784Z,4.563293
2019-04-29T01:14:04.804Z,4.533081
2019-04-29T01:15:04.904Z,4.52301
2019-04-29T01:16:05.006Z,4.563293
2019-04-29T01:17:05.122Z,4.563293
2019-04-29T01:18:05.212Z,4.563293
2019-04-29T01:19:05.285Z,4.573364
2019-04-29T01:20:05.458Z,4.583435
2019-04-29T01:21:05.727Z,4.613647
2019-04-29T01:22:05.624Z,4.613647
2019-04-29T01:23:05.715Z,4.613647
2019-04-29T01:24:05.785Z,4.603577
2019-04-29T01:25:05.879Z,4.573364
2019-04-29T01:26:05.990Z,4.533081
2019-04-29T01:27:06.045Z,4.533081
2019-04-29T01:28:06.104Z,4.52301
2019-04-29T01:29:06.200Z,4.52301
2019-04-29T01:30:06.312Z,4.502869
2019-04-29T01:31:06.360Z,4.492798
2019-04-29T01:32:06.438Z,4.482727
2019-04-29T01:33:06.519Z,4.462585
2019-04-29T01:34:06.592Z,4.452515
2019-04-29T01:35:06.742Z,4.432373
2019-04-29T01:36:06.762Z,4.402161
2019-04-29T01:37:06.850Z,4.361877
2019-04-29T01:38:06.936Z,4.361877
2019-04-29T01:39:07.057Z,4.341736
2019-04-29T01:40:07.097Z,4.321594
2019-04-29T01:41:07.201Z,4.321594
2019-04-29T01:42:07.323Z,4.301453
2019-04-29T01:43:07.438Z,4.281311
2019-04-29T01:44:07.532Z,4.27124
2019-04-29T01:45:07.703Z,4.241028
2019-04-29T01:46:07.784Z,4.220886
2019-04-29T01:47:07.870Z,4.200745
2019-04-29T01:48:07.958Z,4.160461
2019-04-29T01:49:08.072Z,4.14032
2019-04-29T01:50:08.186Z,4.160461
2019-04-29T01:51:08.283Z,4.160461
2019-04-29T01:52:08.371Z,4.180603
2019-04-29T01:53:08.464Z,4.180603
2019-04-29T01:54:08.615Z,4.180603
2019-04-29T01:55:08.621Z,4.160461
2019-04-29T01:56:08.600Z,4.200745
2019-04-29T01:57:08.755Z,4.180603
2019-04-29T01:58:08.909Z,4.180603
2019-04-29T01:59:09.013Z,4.180603
2019-04-29T02:00:12.056Z,4.160461
2019-04-29T02:01:09.256Z,4.160461
2019-04-29T02:02:09.397Z,4.14032
2019-04-29T02:03:09.525Z,4.160461
2019-04-29T02:04:09.638Z,4.130249
2019-04-29T02:05:09.856Z,4.130249
2019-04-29T02:06:09.802Z,4.130249
2019-04-29T02:07:09.785Z,4.130249
2019-04-29T02:08:09.887Z,4.14032
2019-04-29T02:09:10.312Z,4.160461
2019-04-29T02:10:09.973Z,4.160461
2019-04-29T02:11:10.074Z,4.180603
2019-04-29T02:12:10.174Z,4.160461
2019-04-29T02:13:10.312Z,4.160461
2019-04-29T02:14:10.447Z,4.14032
2019-04-29T02:15:10.520Z,4.120178
2019-04-29T02:16:10.663Z,4.089966
2019-04-29T02:17:10.766Z,4.089966
2019-04-29T02:18:10.841Z,4.069824
2019-04-29T02:19:10.913Z,4.039612
2019-04-29T02:20:11.011Z,4.029541
2019-04-29T02:21:11.103Z,4.01947
2019-04-29T02:22:11.198Z,3.999329
2019-04-29T02:23:11.314Z,3.999329
2019-04-29T02:24:11.446Z,3.989258
2019-04-29T02:25:11.551Z,3.959045
2019-04-29T02:26:11.651Z,3.948975
2019-04-29T02:27:11.727Z,3.938904
2019-04-29T02:28:11.794Z,3.918762
2019-04-29T02:29:11.881Z,3.908691
2019-04-29T02:30:11.959Z,3.908691
2019-04-29T02:31:11.977Z,3.88855
2019-04-29T02:32:12.130Z,3.878479
2019-04-29T02:33:12.230Z,3.858337
2019-04-29T02:34:12.322Z,3.858337
2019-04-29T02:35:12.303Z,3.848267
2019-04-29T02:36:12.403Z,3.818054
2019-04-29T02:37:12.520Z,3.818054
2019-04-29T02:38:12.605Z,3.777771
2019-04-29T02:39:12.715Z,3.777771
2019-04-29T02:40:12.823Z,3.7677
2019-04-29T02:41:12.951Z,3.757629
2019-04-29T02:42:13.125Z,3.757629
2019-04-29T02:43:13.205Z,3.757629
2019-04-29T02:44:13.308Z,3.757629
2019-04-29T02:45:13.389Z,3.737488
2019-04-29T02:46:13.472Z,3.727417
2019-04-29T02:47:13.599Z,3.737488
2019-04-29T02:48:13.667Z,3.707275
2019-04-29T02:49:14.730Z,3.707275
2019-04-29T02:50:13.799Z,3.707275
2019-04-29T02:51:13.885Z,3.707275
2019-04-29T02:52:14.016Z,3.697205
2019-04-29T02:53:14.097Z,3.697205
2019-04-29T02:54:14.185Z,3.707275
2019-04-29T02:55:14.255Z,3.707275
2019-04-29T02:56:14.386Z,3.677063
2019-04-29T02:57:14.497Z,3.666992
2019-04-29T02:58:14.477Z,3.677063
2019-04-29T02:59:14.530Z,3.677063
2019-04-29T03:00:14.618Z,3.677063
2019-04-29T03:01:14.673Z,3.677063
2019-04-29T03:02:14.827Z,3.666992
2019-04-29T03:03:14.927Z,3.656921
2019-04-29T03:04:15.082Z,3.656921
2019-04-29T03:05:15.192Z,3.666992
2019-04-29T03:06:15.308Z,3.677063
2019-04-29T03:07:15.417Z,3.697205
2019-04-29T03:08:15.384Z,3.697205
2019-04-29T03:09:15.482Z,3.697205
2019-04-29T03:10:15.502Z,3.707275
2019-04-29T03:11:15.677Z,3.727417
2019-04-29T03:12:15.698Z,3.707275
2019-04-29T03:13:15.804Z,3.727417
2019-04-29T03:14:15.876Z,3.737488
2019-04-29T03:15:15.939Z,3.737488
2019-04-29T03:16:16.063Z,3.737488
2019-04-29T03:17:18.731Z,3.727417
2019-04-29T03:18:16.203Z,3.727417
2019-04-29T03:19:16.305Z,3.737488
2019-04-29T03:20:16.400Z,3.727417
2019-04-29T03:21:16.472Z,3.737488
2019-04-29T03:22:16.559Z,3.707275
2019-04-29T03:23:16.704Z,3.707275
2019-04-29T03:24:16.807Z,3.707275
2019-04-29T03:25:16.888Z,3.707275
2019-04-29T03:26:16.888Z,3.707275
2019-04-29T03:27:16.962Z,3.707275
2019-04-29T03:28:17.052Z,3.707275
2019-04-29T03:29:17.112Z,3.677063
2019-04-29T03:30:17.204Z,3.666992
2019-04-29T03:31:17.271Z,3.677063
2019-04-29T03:32:17.351Z,3.666992
2019-04-29T03:33:17.559Z,3.626709
2019-04-29T03:34:17.638Z,3.606567
2019-04-29T03:35:17.773Z,3.606567
2019-04-29T03:36:17.847Z,3.586426
2019-04-29T03:37:17.900Z,3.606567
2019-04-29T03:38:18.009Z,3.586426
2019-04-29T03:39:18.109Z,3.586426
2019-04-29T03:40:18.200Z,3.606567
2019-04-29T03:41:18.279Z,3.586426
2019-04-29T03:42:18.318Z,3.586426
2019-04-29T03:43:18.424Z,3.576355
2019-04-29T03:44:18.493Z,3.576355
2019-04-29T03:45:18.594Z,3.576355
2019-04-29T03:46:18.654Z,3.576355
2019-04-29T03:47:19.229Z,3.576355
2019-04-29T03:48:18.841Z,3.606567
2019-04-29T03:49:18.912Z,3.586426
2019-04-29T03:50:18.979Z,3.586426
2019-04-29T03:51:19.057Z,3.606567
2019-04-29T03:52:19.128Z,3.586426
2019-04-29T03:53:19.194Z,3.556213
2019-04-29T03:54:19.324Z,3.556213
2019-04-29T03:55:37.533Z,3.556213
2019-04-29T03:56:19.427Z,3.586426
2019-04-29T03:57:19.520Z,3.576355
2019-04-29T03:58:19.605Z,3.576355
2019-04-29T03:59:19.713Z,3.556213
2019-04-29T04:00:19.786Z,3.546143
2019-04-29T04:01:19.879Z,3.546143
2019-04-29T04:02:19.941Z,3.526001
2019-04-29T04:03:20.038Z,3.495789
2019-04-29T04:04:20.173Z,3.485718
2019-04-29T04:05:20.251Z,3.455505
2019-04-29T04:06:20.315Z,3.455505
2019-04-29T04:07:20.369Z,3.455505
2019-04-29T04:08:20.451Z,3.425293
2019-04-29T04:09:20.569Z,3.425293
2019-04-29T04:10:20.661Z,3.405151
2019-04-29T04:11:20.746Z,3.405151
2019-04-29T04:12:20.811Z,3.405151
2019-04-29T04:13:20.930Z,3.405151
2019-04-29T04:14:21.983Z,3.395081
2019-04-29T04:15:20.999Z,3.395081
2019-04-29T04:16:21.073Z,3.374939
2019-04-29T04:17:21.107Z,3.374939
2019-04-29T04:18:21.133Z,3.364868
2019-04-29T04:19:21.233Z,3.344727
2019-04-29T04:20:21.280Z,3.344727
2019-04-29T04:21:21.278Z,3.374939
2019-04-29T04:22:21.304Z,3.374939
2019-04-29T04:23:21.300Z,3.374939
2019-04-29T04:24:21.486Z,3.395081
2019-04-29T04:25:21.490Z,3.395081
2019-04-29T04:26:21.499Z,3.425293
2019-04-29T04:27:21.637Z,3.445435
2019-04-29T04:28:21.631Z,3.455505
2019-04-29T04:29:21.861Z,3.455505
2019-04-29T04:30:21.743Z,3.485718
2019-04-29T04:31:21.800Z,3.475647
2019-04-29T04:32:21.825Z,3.495789
2019-04-29T04:33:21.830Z,3.495789
2019-04-29T04:34:21.874Z,3.51593
2019-04-29T04:35:21.945Z,3.546143
2019-04-29T04:36:22.003Z,3.576355
2019-04-29T04:37:22.017Z,3.586426
2019-04-29T04:38:22.050Z,3.606567
2019-04-29T04:39:22.089Z,3.626709
2019-04-29T04:40:22.167Z,3.63678
2019-04-29T04:41:22.192Z,3.626709
2019-04-29T04:42:22.242Z,3.656921
2019-04-29T04:43:22.243Z,3.656921
2019-04-29T04:44:22.254Z,3.666992
2019-04-29T04:45:22.306Z,3.677063
2019-04-29T04:46:22.339Z,3.677063
2019-04-29T04:47:22.376Z,3.697205
2019-04-29T04:48:22.401Z,3.697205
2019-04-29T04:49:22.541Z,3.697205
2019-04-29T04:50:22.569Z,3.707275
2019-04-29T04:51:22.571Z,3.707275
2019-04-29T04:52:22.616Z,3.707275
2019-04-29T04:53:22.626Z,3.707275
2019-04-29T04:54:22.662Z,3.727417
2019-04-29T04:55:22.734Z,3.727417
2019-04-29T04:56:22.762Z,3.727417
2019-04-29T04:57:22.803Z,3.737488
2019-04-29T04:58:22.819Z,3.737488
2019-04-29T04:59:22.842Z,3.757629
2019-04-29T05:00:22.923Z,3.757629
2019-04-29T05:01:22.956Z,3.777771
2019-04-29T05:02:22.955Z,3.777771
2019-04-29T05:03:23.041Z,3.777771
2019-04-29T05:04:23.053Z,3.807983
2019-04-29T05:05:23.112Z,3.818054
2019-04-29T05:06:23.140Z,3.838196
2019-04-29T05:07:23.158Z,3.838196
2019-04-29T05:08:23.176Z,3.838196
2019-04-29T05:09:23.188Z,3.848267
2019-04-29T05:10:23.216Z,3.848267
2019-04-29T05:11:24.269Z,3.878479
2019-04-29T05:12:23.260Z,3.878479
2019-04-29T05:13:28.087Z,3.878479
2019-04-29T05:14:23.296Z,3.88855
2019-04-29T05:15:23.329Z,3.918762
2019-04-29T05:16:23.409Z,3.938904
2019-04-29T05:17:23.411Z,3.959045
2019-04-29T05:18:23.451Z,3.989258
2019-04-29T05:19:23.470Z,3.999329
2019-04-29T05:20:23.519Z,4.039612
2019-04-29T05:21:23.568Z,4.069824
2019-04-29T05:22:23.564Z,4.089966
2019-04-29T05:23:23.574Z,4.100037
2019-04-29T05:24:23.579Z,4.14032
2019-04-29T05:25:23.589Z,4.160461
2019-04-29T05:26:23.625Z,4.200745
2019-04-29T05:27:23.680Z,4.241028
2019-04-29T05:28:23.675Z,4.281311
2019-04-29T05:29:23.696Z,4.321594
2019-04-29T05:30:23.848Z,4.382019
2019-04-29T05:31:23.878Z,4.402161
2019-04-29T05:32:23.943Z,4.422302
2019-04-29T05:33:23.963Z,4.432373
2019-04-29T05:34:24.011Z,4.482727
2019-04-29T05:35:26.410Z,4.52301
2019-04-29T05:36:25.068Z,4.563293
2019-04-29T05:37:24.064Z,4.583435
2019-04-29T05:38:24.079Z,4.603577
2019-04-29T05:39:24.081Z,4.64386
2019-04-29T05:40:24.091Z,4.674072
2019-04-29T05:41:24.148Z,4.704285
2019-04-29T05:42:24.164Z,4.744568
2019-04-29T05:43:26.902Z,4.764709
2019-04-29T05:44:24.233Z,4.784851
2019-04-29T05:45:24.274Z,4.815063
2019-04-29T05:46:24.328Z,4.815063
2019-04-29T05:47:24.370Z,4.825134
2019-04-29T05:48:27.546Z,4.855347
2019-04-29T05:49:24.530Z,4.865417
2019-04-29T05:50:24.543Z,4.835205
2019-04-29T05:51:27.163Z,4.835205
2019-04-29T05:52:24.624Z,4.825134
2019-04-29T05:53:25.605Z,4.855347
2019-04-29T05:54:26.808Z,4.865417
2019-04-29T05:55:24.770Z,4.89563
2019-04-29T05:56:24.786Z,4.915771
2019-04-29T05:57:25.605Z,4.966125
2019-04-29T05:58:24.859Z,5.006409
2019-04-29T05:59:25.932Z,5.066833
2019-04-29T06:00:25.038Z,5.117188
2019-04-29T06:01:25.067Z,5.157471
2019-04-29T06:02:33.077Z,5.227966
2019-04-29T06:03:26.235Z,5.308533
2019-04-29T06:04:28.537Z,5.379028
2019-04-29T06:05:25.224Z,5.439453
2019-04-29T06:06:25.240Z,5.509949
2019-04-29T06:07:26.903Z,5.580444
2019-04-29T06:08:25.374Z,5.620728
2019-04-29T06:09:26.458Z,5.691223
2019-04-29T06:10:25.502Z,5.721436
2019-04-29T06:11:25.521Z,5.77179
2019-04-29T06:12:25.558Z,5.832214
2019-04-29T06:13:25.598Z,5.882568
2019-04-29T06:14:25.629Z,5.90271
2019-04-29T06:15:25.748Z,5.942993
2019-04-29T06:16:25.777Z,5.983276
2019-04-29T06:17:25.788Z,6.013489
2019-04-29T06:18:26.802Z,6.053772
2019-04-29T06:19:26.799Z,6.073914
2019-04-29T06:20:26.950Z,6.094055
2019-04-29T06:21:25.950Z,6.15448
2019-04-29T06:22:26.044Z,6.194763
2019-04-29T06:23:27.057Z,6.255188
2019-04-29T06:24:26.081Z,6.305542
2019-04-29T06:25:27.071Z,6.345825
2019-04-29T06:26:26.094Z,6.426392
2019-04-29T06:27:26.102Z,6.517029
2019-04-29T06:28:27.894Z,6.637878
2019-04-29T06:29:26.253Z,6.718445
2019-04-29T06:30:26.258Z,6.829224
2019-04-29T06:31:27.254Z,6.899719
2019-04-29T06:32:26.451Z,7.000427
2019-04-29T06:33:28.962Z,7.080994
2019-04-29T06:34:26.298Z,7.131348
2019-04-29T06:35:27.433Z,7.151489
2019-04-29T06:36:27.426Z,7.221985
2019-04-29T06:37:26.431Z,7.252197
2019-04-29T06:38:26.486Z,7.29248
2019-04-29T06:39:26.497Z,7.332764
2019-04-29T06:40:30.467Z,7.373047
2019-04-29T06:41:26.684Z,7.41333
2019-04-29T06:42:27.678Z,7.433472
2019-04-29T06:43:28.664Z,7.463684
2019-04-29T06:44:26.737Z,7.463684
2019-04-29T06:45:26.806Z,7.473755
2019-04-29T06:46:26.873Z,7.53418
2019-04-29T06:47:26.865Z,7.584534
2019-04-29T06:48:26.908Z,7.624817
2019-04-29T06:49:27.124Z,7.685242
2019-04-29T06:50:26.988Z,7.745667
2019-04-29T06:51:27.085Z,7.826233
2019-04-29T06:52:27.110Z,7.926941
2019-04-29T06:53:27.151Z,7.977295
2019-04-29T06:54:27.489Z,7.947083
2019-04-29T06:55:27.386Z,7.977295
2019-04-29T06:56:27.446Z,8.017578
2019-04-29T06:57:27.511Z,8.027649
2019-04-29T06:58:27.566Z,8.078003
2019-04-29T06:59:27.620Z,8.108215
2019-04-29T07:00:28.686Z,8.108215
2019-04-29T07:01:27.841Z,8.128357
2019-04-29T07:02:27.730Z,8.16864
2019-04-29T07:03:27.788Z,8.229065
2019-04-29T07:04:30.568Z,8.309631
2019-04-29T07:05:27.947Z,8.339844
2019-04-29T07:06:27.975Z,8.380127
2019-04-29T07:07:27.997Z,8.450623
2019-04-29T07:08:28.242Z,8.490906
2019-04-29T07:09:29.127Z,8.561401
2019-04-29T07:10:28.157Z,8.601685
2019-04-29T07:11:31.725Z,8.662109
2019-04-29T07:12:28.205Z,8.712463
2019-04-29T07:13:29.249Z,8.752747
2019-04-29T07:14:32.789Z,8.79303
2019-04-29T07:15:28.276Z,8.843384
2019-04-29T07:16:31.854Z,8.843384
2019-04-29T07:17:28.320Z,8.873596
2019-04-29T07:18:29.318Z,8.954163
2019-04-29T07:19:29.491Z,8.974304
2019-04-29T07:20:28.499Z,9.004517
2019-04-29T07:21:28.643Z,9.054871
2019-04-29T07:22:31.103Z,9.105225
2019-04-29T07:23:28.659Z,9.145508
2019-04-29T07:24:28.701Z,9.185791
2019-04-29T07:25:30.288Z,9.256287
2019-04-29T07:26:28.808Z,9.29657
2019-04-29T07:27:28.819Z,9.367065
2019-04-29T07:28:30.034Z,9.437561
2019-04-29T07:29:32.269Z,9.54834
2019-04-29T07:30:29.349Z,9.618835
2019-04-29T07:31:33.147Z,9.659119
2019-04-29T07:32:32.118Z,9.729614
2019-04-29T07:33:29.247Z,9.80011
2019-04-29T07:34:33.567Z,9.820251
2019-04-29T07:35:29.391Z,9.910889
2019-04-29T07:36:30.381Z,9.951172
2019-04-29T07:37:29.639Z,10.001526
2019-04-29T07:38:40.459Z,10.061951
2019-04-29T07:39:31.617Z,10.102234
2019-04-29T07:40:29.613Z,10.1828
2019-04-29T07:41:29.610Z,10.273438
2019-04-29T07:42:32.057Z,10.333862
2019-04-29T07:43:29.657Z,10.364075
2019-04-29T07:44:43.292Z,10.394287
2019-04-29T07:45:43.524Z,10.454712
2019-04-29T07:46:34.611Z,10.484924
2019-04-29T07:47:31.220Z,10.484924
2019-04-29T07:48:31.156Z,10.494995
2019-04-29T07:49:30.300Z,10.565491
2019-04-29T07:50:30.337Z,10.585632
2019-04-29T07:51:30.362Z,10.635986
2019-04-29T07:52:30.357Z,10.666199
2019-04-29T07:53:37.357Z,10.67627
2019-04-29T07:54:31.469Z,10.67627
2019-04-29T07:55:32.542Z,10.716553
2019-04-29T07:56:30.508Z,10.766907
2019-04-29T07:57:30.660Z,10.817261
2019-04-29T07:58:30.686Z,10.827332
2019-04-29T07:59:33.722Z,10.857544
2019-04-29T08:00:30.766Z,10.897827
2019-04-29T08:01:31.837Z,10.968323
2019-04-29T08:02:30.855Z,10.998535
2019-04-29T08:03:30.871Z,11.048889
2019-04-29T08:04:30.892Z,11.069031
2019-04-29T08:05:30.918Z,11.119385
2019-04-29T08:06:30.995Z,11.159668
2019-04-29T08:07:32.142Z,11.18988
2019-04-29T08:08:31.149Z,11.250305
2019-04-29T08:09:32.166Z,11.31073
2019-04-29T08:10:31.243Z,11.351013
2019-04-29T08:11:32.374Z,11.522217
2019-04-29T08:12:31.471Z,12.247314
2019-04-29T08:13:31.596Z,13.486023
2019-04-29T08:14:31.647Z,14.664307
2019-04-29T08:15:32.112Z,15.540466
2019-04-29T08:16:31.761Z,16.134644
2019-04-29T08:17:31.772Z,16.426697
2019-04-29T08:18:31.845Z,16.436768
2019-04-29T08:19:32.853Z,16.275635
2019-04-29T08:20:35.351Z,15.852661
2019-04-29T08:21:31.995Z,15.429688
2019-04-29T08:22:32.959Z,15.228271
2019-04-29T08:23:32.545Z,15.046997
2019-04-29T08:24:32.183Z,14.775085
2019-04-29T08:25:33.187Z,14.714661
2019-04-29T08:26:33.538Z,14.58374
2019-04-29T08:27:39.493Z,14.483032
2019-04-29T08:28:32.178Z,14.362183
2019-04-29T08:29:35.569Z,14.301758
2019-04-29T08:30:32.193Z,14.382324
2019-04-29T08:31:33.459Z,14.523315
2019-04-29T08:32:36.278Z,14.593811
2019-04-29T08:33:32.455Z,14.442749
2019-04-29T08:34:33.561Z,14.70459
2019-04-29T08:35:36.735Z,15.077209
2019-04-29T08:36:33.860Z,15.328979
2019-04-29T08:37:32.896Z,15.389404
2019-04-29T08:38:32.905Z,15.510254
2019-04-29T08:39:32.958Z,15.409546
2019-04-29T08:40:34.390Z,15.389404
2019-04-29T08:41:34.160Z,15.137634
2019-04-29T08:42:33.181Z,14.805298
2019-04-29T08:43:34.335Z,14.674377
2019-04-29T08:44:33.380Z,14.362183
2019-04-29T08:45:34.627Z,14.120483
2019-04-29T08:46:33.378Z,14.029846
2019-04-29T08:47:34.452Z,13.848572
2019-04-29T08:48:33.474Z,13.667297
2019-04-29T08:49:33.528Z,13.69751
2019-04-29T08:50:33.538Z,13.707581
2019-04-29T08:51:33.595Z,13.747864
2019-04-29T08:52:33.594Z,13.798218
2019-04-29T08:53:33.609Z,13.969421
2019-04-29T08:54:36.775Z,14.120483
2019-04-29T08:55:36.139Z,14.221191
2019-04-29T08:56:33.802Z,14.231262
2019-04-29T08:57:36.461Z,14.231262
2019-04-29T08:58:33.884Z,14.130554
2019-04-29T08:59:34.913Z,14.070129
2019-04-29T09:00:33.945Z,13.999634
2019-04-29T09:01:35.750Z,13.818359
2019-04-29T09:02:35.539Z,13.707581
2019-04-29T09:03:40.304Z,13.69751
2019-04-29T09:04:35.282Z,13.677368
2019-04-29T09:05:35.496Z,13.667297
2019-04-29T09:06:35.497Z,13.606873
2019-04-29T09:07:34.577Z,13.57666
2019-04-29T09:08:34.749Z,13.707581
2019-04-29T09:09:35.723Z,14.049988
2019-04-29T09:10:36.708Z,14.33197
2019-04-29T09:11:34.894Z,14.493103
2019-04-29T09:12:35.072Z,14.523315
2019-04-29T09:13:35.139Z,14.382324
2019-04-29T09:14:35.140Z,14.442749
2019-04-29T09:15:35.306Z,14.513245
2019-04-29T09:16:35.431Z,14.533386
2019-04-29T09:17:35.473Z,14.613953
2019-04-29T09:18:35.498Z,14.624023
2019-04-29T09:19:35.524Z,14.483032
2019-04-29T09:20:35.538Z,14.432678
2019-04-29T09:21:35.586Z,14.432678
2019-04-29T09:22:35.653Z,14.412537
2019-04-29T09:23:35.684Z,14.342041
2019-04-29T09:24:35.722Z,14.190979
2019-04-29T09:25:36.871Z,14.120483
2019-04-29T09:26:37.014Z,13.969421
2019-04-29T09:27:36.047Z,13.848572
2019-04-29T09:28:36.089Z,13.707581
2019-04-29T09:29:37.099Z,13.727722
2019-04-29T09:30:38.582Z,13.747864
2019-04-29T09:31:36.160Z,13.727722
2019-04-29T09:32:38.036Z,13.747864
2019-04-29T09:33:36.190Z,13.747864
2019-04-29T09:34:37.337Z,13.778076
2019-04-29T09:35:38.612Z,13.848572
2019-04-29T09:36:36.367Z,13.94928
2019-04-29T09:37:37.516Z,14.009705
2019-04-29T09:38:38.432Z,13.908997
2019-04-29T09:39:43.206Z,13.788147
2019-04-29T09:40:36.751Z,13.798218
2019-04-29T09:41:36.768Z,13.929138
2019-04-29T09:42:36.878Z,14.029846
2019-04-29T09:43:37.891Z,14.160767
2019-04-29T09:44:39.842Z,14.20105
2019-04-29T09:45:37.152Z,14.261475
2019-04-29T09:46:38.234Z,14.372253
2019-04-29T09:47:37.233Z,14.513245
2019-04-29T09:48:37.253Z,14.664307
2019-04-29T09:49:37.255Z,14.634094
2019-04-29T09:50:38.983Z,14.593811
2019-04-29T09:51:37.299Z,14.593811
2019-04-29T09:52:37.299Z,14.593811
2019-04-29T09:53:37.346Z,14.553528
2019-04-29T09:54:37.343Z,14.523315
2019-04-29T09:55:39.877Z,14.442749
2019-04-29T09:56:37.362Z,14.372253
2019-04-29T09:57:37.385Z,14.45282
2019-04-29T09:58:37.446Z,14.553528
2019-04-29T09:59:37.469Z,14.613953
2019-04-29T10:00:40.614Z,14.613953
2019-04-29T10:01:37.623Z,14.533386
2019-04-29T10:02:37.624Z,14.533386
2019-04-29T10:03:37.673Z,14.563599
2019-04-29T10:04:37.816Z,14.563599
2019-04-29T10:05:38.813Z,14.624023
2019-04-29T10:06:37.835Z,14.613953
2019-04-29T10:07:37.851Z,14.70459
2019-04-29T10:08:37.853Z,14.845581
2019-04-29T10:09:38.045Z,14.885864
2019-04-29T10:10:38.919Z,14.805298
2019-04-29T10:11:38.002Z,14.785156
2019-04-29T10:12:38.019Z,14.936218
2019-04-29T10:13:39.022Z,15.147705
2019-04-29T10:14:38.178Z,15.349121
2019-04-29T10:15:38.101Z,15.500183
2019-04-29T10:16:38.141Z,15.631104
2019-04-29T10:17:38.173Z,15.631104
2019-04-29T10:18:39.310Z,15.540466
2019-04-29T10:19:38.347Z,15.500183
2019-04-29T10:20:38.368Z,15.500183
2019-04-29T10:21:38.378Z,15.500183
2019-04-29T10:22:38.410Z,15.480042
2019-04-29T10:23:39.413Z,15.510254
2019-04-29T10:24:38.446Z,15.631104
2019-04-29T10:25:38.469Z,15.731812
2019-04-29T10:26:38.616Z,15.852661
2019-04-29T10:27:38.619Z,15.923157
2019-04-29T10:28:38.634Z,15.943298
2019-04-29T10:29:38.667Z,16.003723
2019-04-29T10:30:39.669Z,15.993652
2019-04-29T10:31:38.675Z,15.96344
2019-04-29T10:32:42.284Z,16.003723
2019-04-29T10:33:38.667Z,16.054077
2019-04-29T10:34:42.820Z,16.054077
2019-04-29T10:35:40.672Z,16.205139
2019-04-29T10:36:38.751Z,16.255493
2019-04-29T10:37:39.770Z,16.366272
2019-04-29T10:38:40.384Z,16.396484
2019-04-29T10:39:38.847Z,16.305847
2019-04-29T10:40:38.842Z,16.356201
2019-04-29T10:41:40.200Z,16.235352
2019-04-29T10:42:38.892Z,16.275635
2019-04-29T10:43:38.919Z,16.285706
2019-04-29T10:44:39.955Z,16.174927
2019-04-29T10:45:40.542Z,16.104431
2019-04-29T10:46:39.075Z,16.134644
2019-04-29T10:47:39.125Z,16.205139
2019-04-29T10:48:39.153Z,16.305847
2019-04-29T10:49:40.367Z,16.386414
2019-04-29T10:50:39.250Z,16.58783
2019-04-29T10:51:40.348Z,16.950378
2019-04-29T10:52:40.221Z,17.393494
2019-04-29T10:53:39.379Z,17.393494
2019-04-29T10:54:39.432Z,17.302856
2019-04-29T10:55:40.475Z,17.202148
2019-04-29T10:56:41.011Z,17.141724
2019-04-29T10:57:39.508Z,17.171936
2019-04-29T10:58:39.542Z,16.980591
2019-04-29T10:59:40.619Z,16.889954
2019-04-29T11:00:39.597Z,16.940308
2019-04-29T11:01:39.608Z,17.010803
2019-04-29T11:02:40.620Z,16.920166
2019-04-29T11:03:39.734Z,16.607971
2019-04-29T11:04:40.753Z,16.46698
2019-04-29T11:05:42.877Z,16.577759
2019-04-29T11:06:43.839Z,16.436768
2019-04-29T11:07:39.910Z,16.406555
2019-04-29T11:08:42.885Z,16.456909
2019-04-29T11:09:39.921Z,16.497192
2019-04-29T11:10:39.966Z,16.577759
2019-04-29T11:11:40.969Z,16.436768
2019-04-29T11:12:39.978Z,16.46698
2019-04-29T11:13:46.997Z,16.497192
2019-04-29T11:14:40.175Z,16.507263
2019-04-29T11:15:40.217Z,16.547546
2019-04-29T11:16:46.331Z,16.537476
2019-04-29T11:17:44.359Z,16.607971
2019-04-29T11:18:41.356Z,16.58783
2019-04-29T11:19:41.658Z,16.658325
2019-04-29T11:20:40.424Z,16.819458
2019-04-29T11:21:41.396Z,16.799316
2019-04-29T11:22:44.400Z,16.940308
2019-04-29T11:23:40.545Z,17.22229
2019-04-29T11:24:41.698Z,17.504272
2019-04-29T11:25:40.793Z,17.715759
2019-04-29T11:26:40.734Z,17.675476
2019-04-29T11:27:40.730Z,17.524414
2019-04-29T11:28:41.729Z,17.524414
2019-04-29T11:29:40.857Z,17.524414
2019-04-29T11:30:40.922Z,17.35321
2019-04-29T11:31:41.040Z,17.312927
2019-04-29T11:32:41.023Z,17.312927
2019-04-29T11:33:41.682Z,17.302856
2019-04-29T11:34:41.146Z,17.051086
2019-04-29T11:35:42.194Z,16.829529
2019-04-29T11:36:43.929Z,16.789246
2019-04-29T11:37:41.265Z,16.759033
2019-04-29T11:38:42.266Z,16.789246
2019-04-29T11:39:41.299Z,16.910095
2019-04-29T11:40:43.810Z,16.950378